createdAt,value
2019-03-25T00:01:53.910Z,98582.23
2019-03-25T00:04:24.851Z,98585.45
2019-03-25T00:06:56.853Z,98579.25
2019-03-25T00:09:28.157Z,98581.13
2019-03-25T00:11:59.237Z,98576.27
2019-03-25T00:14:30.627Z,98564.42
2019-03-25T00:17:03.881Z,98574.11
2019-03-25T00:19:34.985Z,98570.59
2019-03-25T00:22:06.184Z,98571.94
2019-03-25T00:24:38.868Z,98573.28
2019-03-25T00:27:10.122Z,98567.89
2019-03-25T00:29:41.191Z,98562.22
2019-03-25T00:32:12.234Z,98564.10
2019-03-25T00:34:43.540Z,98554.95
2019-03-25T00:37:14.557Z,98566.80
2019-03-25T00:39:45.423Z,98562.22
2019-03-25T00:42:16.490Z,98566.80
2019-03-25T00:44:47.450Z,98565.20
2019-03-25T00:47:18.829Z,98571.94
2019-03-25T00:49:49.826Z,98562.22
2019-03-25T00:52:20.857Z,98559.28
2019-03-25T00:54:52.177Z,98558.18
2019-03-25T00:57:23.307Z,98554.95
2019-03-25T00:59:54.206Z,98553.34
2019-03-25T01:02:26.080Z,98554.13
2019-03-25T01:04:57.329Z,98551.44
2019-03-25T01:07:28.759Z,98554.95
2019-03-25T01:10:00.050Z,98553.31
2019-03-25T01:12:31.354Z,98555.77
2019-03-25T01:15:02.761Z,98549.83
2019-03-25T01:17:33.691Z,98552.78
2019-03-25T01:20:06.889Z,98564.38
2019-03-25T01:22:37.890Z,98561.16
2019-03-25T01:25:08.940Z,98555.77
2019-03-25T01:27:40.254Z,98555.23
2019-03-25T01:30:11.696Z,98560.63
2019-03-25T01:32:42.589Z,98566.80
2019-03-25T01:35:13.583Z,98563.86
2019-03-25T01:37:44.783Z,98562.51
2019-03-25T01:40:16.157Z,98563.86
2019-03-25T01:42:47.256Z,98561.45
2019-03-25T01:45:18.110Z,98555.77
2019-03-25T01:47:49.166Z,98558.75
2019-03-25T01:50:20.493Z,98561.98
2019-03-25T01:52:51.440Z,98560.63
2019-03-25T01:55:22.605Z,98548.50
2019-03-25T01:57:53.741Z,98553.36
2019-03-25T02:00:24.698Z,98548.50
2019-03-25T02:02:55.669Z,98554.98
2019-03-25T02:05:26.730Z,98550.12
2019-03-25T02:07:57.648Z,98556.05
2019-03-25T02:10:28.573Z,98553.89
2019-03-25T02:12:59.503Z,98553.64
2019-03-25T02:15:30.793Z,98546.63
2019-03-25T02:18:03.704Z,98544.46
2019-03-25T02:20:34.460Z,98547.19
2019-03-25T02:23:05.666Z,98549.07
2019-03-25T02:25:38.278Z,98546.13
2019-03-25T02:28:09.412Z,98553.68
2019-03-25T02:30:41.765Z,98541.80
2019-03-25T02:33:12.787Z,98542.34
2019-03-25T02:35:43.804Z,98549.64
2019-03-25T02:38:15.345Z,98544.75
2019-03-25T02:40:46.183Z,98537.77
2019-03-25T02:43:18.345Z,98547.48
2019-03-25T02:45:49.225Z,98538.86
2019-03-25T02:48:20.303Z,98539.67
2019-03-25T02:50:51.266Z,98541.83
2019-03-25T02:53:22.294Z,98538.32
2019-03-25T02:55:53.216Z,98540.48
2019-03-25T02:58:23.986Z,98533.52
2019-03-25T03:00:54.999Z,98543.73
2019-03-25T03:03:25.791Z,98531.89
2019-03-25T03:05:56.864Z,98538.61
2019-03-25T03:08:28.065Z,98545.33
2019-03-25T03:11:00.436Z,98536.45
2019-03-25T03:13:32.805Z,98534.31
2019-03-25T03:16:04.039Z,98528.11
2019-03-25T03:18:34.822Z,98529.19
2019-03-25T03:21:06.803Z,98528.66
2019-03-25T03:23:37.832Z,98524.34
2019-03-25T03:26:08.555Z,98522.47
2019-03-25T03:28:39.830Z,98523.52
2019-03-25T03:31:10.742Z,98517.61
2019-03-25T03:33:41.792Z,98520.30
2019-03-25T03:36:15.953Z,98524.34
2019-03-25T03:38:46.627Z,98521.91
2019-03-25T03:41:17.606Z,98515.71
2019-03-25T03:43:48.331Z,98518.40
2019-03-25T03:46:20.577Z,98522.15
2019-03-25T03:48:51.553Z,98519.20
2019-03-25T03:51:23.013Z,98527.27
2019-03-25T03:53:54.049Z,98518.09
2019-03-25T03:56:26.152Z,98519.44
2019-03-25T03:58:57.405Z,98523.23
2019-03-25T04:01:28.479Z,98521.84
2019-03-25T04:03:59.838Z,98521.84
2019-03-25T04:06:31.973Z,98523.14
2019-03-25T04:09:03.141Z,98520.18
2019-03-25T04:11:35.242Z,98518.02
2019-03-25T04:14:06.384Z,98512.86
2019-03-25T04:16:38.510Z,98519.85
2019-03-25T04:19:09.672Z,98515.23
2019-03-25T04:21:41.823Z,98520.06
2019-03-25T04:24:13.096Z,98525.14
2019-03-25T04:26:47.471Z,98522.70
2019-03-25T04:29:18.705Z,98526.44
2019-03-25T04:31:49.813Z,98522.63
2019-03-25T04:34:20.765Z,98520.17
2019-03-25T04:36:51.884Z,98518.28
2019-03-25T04:39:23.051Z,98515.59
2019-03-25T04:41:54.643Z,98512.36
2019-03-25T04:44:25.841Z,98514.17
2019-03-25T04:46:56.862Z,98521.13
2019-03-25T04:49:27.832Z,98521.03
2019-03-25T04:51:59.076Z,98530.33
2019-03-25T04:54:30.226Z,98526.73
2019-03-25T04:57:03.151Z,98526.64
2019-03-25T04:59:33.985Z,98529.14
2019-03-25T05:02:09.835Z,98532.79
2019-03-25T05:04:40.824Z,98535.61
2019-03-25T05:07:11.878Z,98534.67
2019-03-25T05:09:43.211Z,98537.81
2019-03-25T05:12:16.191Z,98538.23
2019-03-25T05:14:47.175Z,98532.84
2019-03-25T05:17:18.425Z,98537.50
2019-03-25T05:19:49.220Z,98539.55
2019-03-25T05:22:20.382Z,98543.78
2019-03-25T05:24:51.420Z,98535.97
2019-03-25T05:27:22.328Z,98538.95
2019-03-25T05:29:54.979Z,98549.95
2019-03-25T05:32:26.235Z,98546.47
2019-03-25T05:34:57.241Z,98551.33
2019-03-25T05:37:28.762Z,98553.13
2019-03-25T05:39:59.851Z,98553.12
2019-03-25T05:42:31.578Z,98559.22
2019-03-25T05:45:02.472Z,98552.52
2019-03-25T05:47:33.629Z,98550.11
2019-03-25T05:50:05.817Z,98554.08
2019-03-25T05:52:38.672Z,98554.22
2019-03-25T05:55:09.666Z,98558.53
2019-03-25T05:57:41.052Z,98550.40
2019-03-25T06:00:12.293Z,98556.69
2019-03-25T06:02:43.861Z,98549.40
2019-03-25T06:05:14.771Z,98555.19
2019-03-25T06:07:45.809Z,98550.23
2019-03-25T06:10:16.501Z,98548.17
2019-03-25T06:12:47.552Z,98549.43
2019-03-25T06:15:19.822Z,98547.18
2019-03-25T06:17:50.990Z,98549.69
2019-03-25T06:20:22.171Z,98553.55
2019-03-25T06:22:53.235Z,98553.67
2019-03-25T06:25:24.397Z,98547.67
2019-03-25T06:27:55.353Z,98544.34
2019-03-25T06:30:26.531Z,98548.00
2019-03-25T06:32:59.273Z,98557.55
2019-03-25T06:35:30.104Z,98544.67
2019-03-25T06:38:00.973Z,98547.16
2019-03-25T06:40:33.466Z,98557.98
2019-03-25T06:43:05.251Z,98557.20
2019-03-25T06:45:38.358Z,98555.31
2019-03-25T06:48:09.431Z,98556.34
2019-03-25T06:50:40.647Z,98553.93
2019-03-25T06:53:11.930Z,98556.30
2019-03-25T06:55:45.198Z,98561.64
2019-03-25T06:58:16.413Z,98555.65
2019-03-25T07:00:47.405Z,98563.30
2019-03-25T07:03:19.778Z,98564.83
2019-03-25T07:05:51.969Z,98566.30
2019-03-25T07:08:23.176Z,98568.17
2019-03-25T07:10:54.400Z,98573.77
2019-03-25T07:13:25.370Z,98565.67
2019-03-25T07:15:58.241Z,98570.11
2019-03-25T07:18:29.303Z,98569.59
2019-03-25T07:21:00.451Z,98570.95
2019-03-25T07:23:31.645Z,98580.61
2019-03-25T07:26:03.212Z,98570.16
2019-03-25T07:28:35.202Z,98568.77
2019-03-25T07:31:06.161Z,98559.61
2019-03-25T07:33:37.289Z,98563.58
2019-03-25T07:36:08.598Z,98562.81
2019-03-25T07:38:40.623Z,98555.64
2019-03-25T07:41:12.031Z,98565.61
2019-03-25T07:43:44.891Z,98569.02
2019-03-25T07:46:16.212Z,98572.62
2019-03-25T07:48:47.358Z,98573.45
2019-03-25T07:51:18.650Z,98575.59
2019-03-25T07:53:51.123Z,98569.18
2019-03-25T07:56:22.859Z,98567.72
2019-03-25T07:58:54.246Z,98553.02
2019-03-25T08:01:27.240Z,98547.55
2019-03-25T08:03:58.384Z,98541.35
2019-03-25T08:06:29.525Z,98540.16
2019-03-25T08:09:04.043Z,98537.70
2019-03-25T08:11:34.860Z,98532.59
2019-03-25T08:14:07.037Z,98543.23
2019-03-25T08:16:40.971Z,98538.62
2019-03-25T08:19:11.978Z,98539.52
2019-03-25T08:21:44.732Z,98539.52
2019-03-25T08:24:15.651Z,98538.33
2019-03-25T08:26:48.042Z,98542.08
2019-03-25T08:29:18.977Z,98538.63
2019-03-25T08:31:52.055Z,98535.77
2019-03-25T08:34:23.248Z,98538.02
2019-03-25T08:36:55.125Z,98542.96
2019-03-25T08:39:26.670Z,98540.11
2019-03-25T08:41:57.975Z,98540.72
2019-03-25T08:44:29.360Z,98538.48
2019-03-25T08:47:00.689Z,98542.34
2019-03-25T08:49:32.053Z,98533.09
2019-03-25T08:52:03.745Z,98542.26
2019-03-25T08:54:34.790Z,98539.52
2019-03-25T08:57:06.125Z,98544.13
2019-03-25T08:59:37.657Z,98532.80
2019-03-25T09:02:09.043Z,98535.36
2019-03-25T09:04:40.700Z,98530.47
2019-03-25T09:07:12.345Z,98522.10
2019-03-25T09:09:45.303Z,98539.35
2019-03-25T09:12:16.752Z,98545.36
2019-03-25T09:14:47.892Z,98548.39
2019-03-25T09:17:20.923Z,98541.68
2019-03-25T09:19:52.259Z,98535.08
2019-03-25T09:22:25.254Z,98539.05
2019-03-25T09:24:58.538Z,98534.94
2019-03-25T09:27:35.840Z,98536.04
2019-03-25T09:30:08.973Z,98530.67
2019-03-25T09:32:40.803Z,98535.59
2019-03-25T09:35:14.122Z,98529.82
2019-03-25T09:37:48.295Z,98531.88
2019-03-25T09:40:22.454Z,98530.65
2019-03-25T09:42:54.127Z,98526.80
2019-03-25T09:45:26.400Z,98528.17
2019-03-25T09:47:57.560Z,98528.61
2019-03-25T09:50:28.762Z,98522.16
2019-03-25T09:53:00.132Z,98514.86
2019-03-25T09:55:31.262Z,98523.30
2019-03-25T09:58:02.446Z,98525.19
2019-03-25T10:00:34.080Z,98520.30
2019-03-25T10:03:05.646Z,98515.89
2019-03-25T10:05:38.570Z,98516.37
2019-03-25T10:08:09.898Z,98513.30
2019-03-25T10:10:41.109Z,98507.31
2019-03-25T10:13:12.269Z,98512.95
2019-03-25T10:15:43.305Z,98515.61
2019-03-25T10:18:14.505Z,98514.48
2019-03-25T10:20:45.703Z,98510.73
2019-03-25T10:23:18.588Z,98508.64
2019-03-25T10:25:53.588Z,98507.95
2019-03-25T10:28:24.791Z,98506.28
2019-03-25T10:30:55.917Z,98509.66
2019-03-25T10:33:27.268Z,98512.30
2019-03-25T10:35:58.562Z,98528.23
2019-03-25T10:38:31.257Z,98543.92
2019-03-25T10:41:05.812Z,98529.72
2019-03-25T10:43:36.909Z,98532.54
2019-03-25T10:46:08.324Z,98536.08
2019-03-25T10:48:39.622Z,98533.35
2019-03-25T10:51:10.567Z,98524.16
2019-03-25T10:53:43.484Z,98521.98
2019-03-25T10:56:14.838Z,98518.39
2019-03-25T10:58:45.915Z,98522.27
2019-03-25T11:01:17.061Z,98515.17
2019-03-25T11:03:51.260Z,98511.21
2019-03-25T11:06:23.777Z,98517.10
2019-03-25T11:08:55.761Z,98513.61
2019-03-25T11:11:26.928Z,98513.19
2019-03-25T11:13:58.145Z,98507.16
2019-03-25T11:16:29.431Z,98518.94
2019-03-25T11:19:00.527Z,98511.16
2019-03-25T11:21:31.567Z,98512.50
2019-03-25T11:24:02.587Z,98508.09
2019-03-25T11:26:35.631Z,98513.70
2019-03-25T11:29:09.808Z,98505.75
2019-03-25T11:31:42.685Z,98511.41
2019-03-25T11:34:13.866Z,98502.31
2019-03-25T11:36:45.044Z,98514.08
2019-03-25T11:39:17.763Z,98509.05
2019-03-25T11:41:50.733Z,98498.59
2019-03-25T11:44:22.046Z,98495.56
2019-03-25T11:46:53.070Z,98493.62
2019-03-25T11:49:24.398Z,98493.62
2019-03-25T11:52:12.530Z,98492.73
2019-03-25T11:54:43.862Z,98499.43
2019-03-25T11:57:15.298Z,98498.38
2019-03-25T11:59:46.246Z,98504.55
2019-03-25T12:02:18.834Z,98515.59
2019-03-25T12:04:51.433Z,98521.50
2019-03-25T12:07:24.774Z,98520.69
2019-03-25T12:09:57.805Z,98512.52
2019-03-25T12:12:31.967Z,98511.55
2019-03-25T12:15:03.257Z,98506.23
2019-03-25T12:17:35.461Z,98508.13
2019-03-25T12:20:06.764Z,98503.50
2019-03-25T12:22:37.629Z,98504.71
2019-03-25T12:25:11.637Z,98508.48
2019-03-25T12:27:42.801Z,98499.59
2019-03-25T12:30:14.419Z,98483.22
2019-03-25T12:32:46.136Z,98490.05
2019-03-25T12:35:17.258Z,98473.72
2019-03-25T12:37:48.462Z,98468.02
2019-03-25T12:40:22.396Z,98471.72
2019-03-25T12:42:53.719Z,98458.36
2019-03-25T12:45:28.439Z,98462.20
2019-03-25T12:47:59.759Z,98463.91
2019-03-25T12:50:33.181Z,98465.78
2019-03-25T12:53:03.789Z,98476.76
2019-03-25T12:55:35.088Z,98483.56
2019-03-25T12:58:07.659Z,98474.48
2019-03-25T13:00:42.831Z,98477.71
2019-03-25T13:03:17.098Z,98468.52
2019-03-25T13:05:48.199Z,98469.05
2019-03-25T13:08:19.339Z,98473.76
2019-03-25T13:10:51.548Z,98478.31
2019-03-25T13:13:22.687Z,98496.80
2019-03-25T13:15:53.979Z,98532.40
2019-03-25T13:18:25.112Z,98536.05
2019-03-25T13:20:55.953Z,98531.94
2019-03-25T13:23:29.251Z,98550.80
2019-03-25T13:26:02.071Z,98539.66
2019-03-25T13:28:33.198Z,98517.08
2019-03-25T13:31:04.221Z,98496.45
2019-03-25T13:33:35.853Z,98492.17
2019-03-25T13:36:07.858Z,98489.06
2019-03-25T13:38:39.111Z,98498.30
2019-03-25T13:41:12.171Z,98493.41
2019-03-25T13:43:43.879Z,98495.78
2019-03-25T13:48:44.182Z,98485.45
2019-03-25T13:51:16.879Z,98487.33
2019-03-25T13:53:49.364Z,98475.38
2019-03-25T13:56:20.414Z,98472.23
2019-03-25T13:58:52.573Z,98467.83
2019-03-25T14:01:23.539Z,98462.53
2019-03-25T14:03:56.448Z,98459.41
2019-03-25T14:06:27.665Z,98453.45
2019-03-25T14:08:58.993Z,98454.58
2019-03-25T14:11:32.290Z,98453.80
2019-03-25T14:14:05.314Z,98456.66
2019-03-25T14:16:37.751Z,98445.67
2019-03-25T14:19:08.730Z,98444.03
2019-03-25T14:21:39.709Z,98448.27
2019-03-25T14:24:12.740Z,98445.48
2019-03-25T14:26:44.205Z,98456.39
2019-03-25T14:29:15.279Z,98464.19
2019-03-25T14:31:48.134Z,98469.19
2019-03-25T14:34:20.843Z,98493.20
2019-03-25T14:36:54.969Z,98512.48
2019-03-25T14:39:26.051Z,98536.69
2019-03-25T14:41:57.352Z,98563.70
2019-03-25T14:44:33.834Z,98584.95
2019-03-25T14:47:05.099Z,98588.34
2019-03-25T14:49:38.337Z,98602.52
2019-03-25T14:52:11.438Z,98599.23
2019-03-25T14:54:42.905Z,98602.53
2019-03-25T14:57:14.166Z,98591.17
2019-03-25T14:59:45.901Z,98585.46
2019-03-25T15:02:18.115Z,98574.65
2019-03-25T15:04:51.218Z,98568.37
2019-03-25T15:07:25.317Z,98576.47
2019-03-25T15:09:57.349Z,98570.05
2019-03-25T15:12:28.602Z,98564.86
2019-03-25T15:15:01.173Z,98571.08
2019-03-25T15:17:32.919Z,98567.86
2019-03-25T15:20:05.978Z,98571.48
2019-03-25T15:22:39.544Z,98570.11
2019-03-25T15:25:12.638Z,98572.55
2019-03-25T15:27:43.748Z,98567.69
2019-03-25T15:30:14.799Z,98566.88
2019-03-25T15:32:45.914Z,98564.75
2019-03-25T15:35:17.879Z,98565.27
2019-03-25T15:37:49.183Z,98580.06
2019-03-25T15:40:22.180Z,98574.14
2019-03-25T15:42:53.484Z,98576.59
2019-03-25T15:45:25.812Z,98575.52
2019-03-25T15:47:56.984Z,98581.44
2019-03-25T15:50:28.623Z,98585.75
2019-03-25T15:53:02.354Z,98587.60
2019-03-25T15:55:33.539Z,98581.70
2019-03-25T15:58:04.694Z,98584.11
2019-03-25T16:00:46.957Z,98594.89
2019-03-25T16:03:09.648Z,98584.37
2019-03-25T16:05:42.867Z,98568.50
2019-03-25T16:08:14.295Z,98577.92
2019-03-25T16:10:45.395Z,98566.88
2019-03-25T16:13:16.561Z,98572.27
2019-03-25T16:15:47.887Z,98573.89
2019-03-25T16:18:41.007Z,98569.03
2019-03-25T16:21:12.570Z,98566.33
2019-03-25T16:23:43.796Z,98569.01
2019-03-25T16:26:17.464Z,98562.30
2019-03-25T16:28:48.699Z,98570.34
2019-03-25T16:31:19.769Z,98584.06
2019-03-25T16:33:52.868Z,98593.42
2019-03-25T16:36:25.392Z,98598.90
2019-03-25T16:38:56.571Z,98595.20
2019-03-25T16:41:28.093Z,98600.02
2019-03-25T16:43:59.517Z,98608.15
2019-03-25T16:46:30.779Z,98609.30
2019-03-25T16:49:02.295Z,98606.88
2019-03-25T16:51:33.748Z,98611.80
2019-03-25T16:54:05.216Z,98610.45
2019-03-25T16:56:38.213Z,98618.56
2019-03-25T16:59:09.526Z,98621.00
2019-03-25T17:01:42.445Z,98635.54
2019-03-25T17:04:15.170Z,98641.22
2019-03-25T17:06:46.715Z,98641.48
2019-03-25T17:09:17.910Z,98654.96
2019-03-25T17:11:49.295Z,98651.44
2019-03-25T17:14:21.644Z,98663.52
2019-03-25T17:16:56.404Z,98675.07
2019-03-25T17:19:27.843Z,98672.05
2019-03-25T17:21:59.236Z,98671.33
2019-03-25T17:24:30.389Z,98666.98
2019-03-25T17:27:05.390Z,98667.56
2019-03-25T17:29:36.988Z,98672.63
2019-03-25T17:32:08.563Z,98679.27
2019-03-25T17:34:39.616Z,98682.83
2019-03-25T17:37:13.656Z,98686.06
2019-03-25T17:39:44.838Z,98687.92
2019-03-25T17:42:17.356Z,98695.59
2019-03-25T17:44:48.715Z,98701.12
2019-03-25T17:47:20.229Z,98715.52
2019-03-25T17:49:51.570Z,98706.38
2019-03-25T17:52:22.715Z,98709.79
2019-03-25T17:54:54.024Z,98711.75
2019-03-25T17:57:26.380Z,98712.20
2019-03-25T17:59:57.563Z,98716.88
2019-03-25T18:02:28.778Z,98718.32
2019-03-25T18:04:59.950Z,98722.00
2019-03-25T18:07:31.069Z,98715.66
2019-03-25T18:10:02.298Z,98719.95
2019-03-25T18:12:39.066Z,98721.80
2019-03-25T18:15:11.022Z,98717.23
2019-03-25T18:17:44.358Z,98721.80
2019-03-25T18:20:18.953Z,98709.73
2019-03-25T18:22:48.851Z,98711.31
2019-03-25T18:25:20.052Z,98720.98
2019-03-25T18:27:51.514Z,98730.07
2019-03-25T18:30:31.578Z,98738.15
2019-03-25T18:33:03.284Z,98746.58
2019-03-25T18:35:34.501Z,98744.20
2019-03-25T18:38:05.960Z,98735.13
2019-03-25T18:40:37.455Z,98727.21
2019-03-25T18:43:08.810Z,98734.26
2019-03-25T18:45:39.794Z,98736.13
2019-03-25T18:48:11.318Z,98738.45
2019-03-25T18:50:43.812Z,98743.83
2019-03-25T18:53:15.236Z,98742.24
2019-03-25T18:55:47.448Z,98746.89
2019-03-25T18:58:18.554Z,98748.28
2019-03-25T19:00:49.786Z,98751.93
2019-03-25T19:03:22.817Z,98748.27
2019-03-25T19:05:54.191Z,98754.62
2019-03-25T19:08:25.558Z,98753.08
2019-03-25T19:10:56.880Z,98753.08
2019-03-25T19:13:28.388Z,98752.09
2019-03-25T19:15:59.651Z,98754.52
2019-03-25T19:18:32.809Z,98756.53
2019-03-25T19:21:04.323Z,98757.48
2019-03-25T19:23:35.548Z,98756.61
2019-03-25T19:26:07.037Z,98763.98
2019-03-25T19:28:38.495Z,98764.80
2019-03-25T19:31:09.686Z,98761.59
2019-03-25T19:33:40.890Z,98757.28
2019-03-25T19:36:12.007Z,98769.08
2019-03-25T19:38:43.467Z,98766.75
2019-03-25T19:41:15.186Z,98764.95
2019-03-25T19:43:46.563Z,98767.44
2019-03-25T19:46:17.717Z,98764.24
2019-03-25T19:48:49.904Z,98758.69
2019-03-25T19:51:21.302Z,98766.66
2019-03-25T19:53:52.958Z,98760.52
2019-03-25T19:56:25.291Z,98770.36
2019-03-25T19:58:56.622Z,98768.77
2019-03-25T20:01:28.497Z,98766.60
2019-03-25T20:03:59.911Z,98770.05
2019-03-25T20:06:31.058Z,98781.13
2019-03-25T20:09:05.161Z,98783.63
2019-03-25T20:11:38.000Z,98787.58
2019-03-25T20:14:11.480Z,98792.27
2019-03-25T20:16:42.870Z,98790.94
2019-03-25T20:19:16.832Z,98792.30
2019-03-25T20:21:48.023Z,98797.92
2019-03-25T20:24:20.203Z,98802.97
2019-03-25T20:26:51.409Z,98801.20
2019-03-25T20:29:23.005Z,98818.77
2019-03-25T20:31:56.133Z,98814.34
2019-03-25T20:34:27.546Z,98816.34
2019-03-25T20:36:58.770Z,98819.87
2019-03-25T20:39:31.895Z,98822.05
2019-03-25T20:42:08.439Z,98825.55
2019-03-25T20:44:41.304Z,98832.03
2019-03-25T20:47:13.004Z,98840.64
2019-03-25T20:49:44.420Z,98844.92
2019-03-25T20:52:17.818Z,98848.73
2019-03-25T20:54:51.769Z,98851.67
2019-03-25T20:57:22.684Z,98854.34
2019-03-25T20:59:53.864Z,98853.78
2019-03-25T21:02:25.292Z,98853.53
2019-03-25T21:04:56.755Z,98857.28
2019-03-25T21:07:28.703Z,98859.35
2019-03-25T21:10:02.438Z,98865.28
2019-03-25T21:12:34.026Z,98867.86
2019-03-25T21:15:05.967Z,98866.21
2019-03-25T21:17:37.422Z,98867.34
2019-03-25T21:20:09.270Z,98872.86
2019-03-25T21:22:42.066Z,98872.34
2019-03-25T21:25:13.463Z,98872.34
2019-03-25T21:27:44.619Z,98880.65
2019-03-25T21:30:17.776Z,98889.25
2019-03-25T21:32:58.107Z,98897.34
2019-03-25T21:35:24.090Z,98889.50
2019-03-25T21:37:55.491Z,98894.34
2019-03-25T21:40:27.178Z,98896.25
2019-03-25T21:42:58.720Z,98903.52
2019-03-25T21:45:30.363Z,98903.52
2019-03-25T21:48:02.160Z,98907.07
2019-03-25T21:50:33.454Z,98901.36
2019-03-25T21:53:05.206Z,98889.35
2019-03-25T21:55:38.361Z,98891.94
2019-03-25T21:58:09.844Z,98890.89
2019-03-25T22:00:41.547Z,98894.39
2019-03-25T22:03:17.728Z,98899.61
2019-03-25T22:05:48.806Z,98897.59
2019-03-25T22:08:20.316Z,98899.09
2019-03-25T22:10:52.040Z,98906.03
2019-03-25T22:13:23.335Z,98911.39
2019-03-25T22:15:56.309Z,98912.23
2019-03-25T22:18:30.528Z,98924.05
2019-03-25T22:21:00.681Z,98925.36
2019-03-25T22:23:31.923Z,98922.11
2019-03-25T22:26:03.081Z,98924.80
2019-03-25T22:28:34.313Z,98921.34
2019-03-25T22:31:07.392Z,98926.03
2019-03-25T22:33:38.843Z,98935.41
2019-03-25T22:36:10.347Z,98936.55
2019-03-25T22:38:42.165Z,98936.75
2019-03-25T22:41:13.885Z,98930.45
2019-03-25T22:43:45.312Z,98933.97
2019-03-25T22:46:18.391Z,98933.97
2019-03-25T22:48:49.405Z,98939.89
2019-03-25T22:51:22.513Z,98943.39
2019-03-25T22:53:53.863Z,98951.19
2019-03-25T22:56:26.614Z,98951.75
2019-03-25T22:58:57.943Z,98949.13
2019-03-25T23:01:29.115Z,98960.04
2019-03-25T23:04:00.319Z,98964.94
2019-03-25T23:06:33.295Z,98965.27
2019-03-25T23:09:05.450Z,98970.19
2019-03-25T23:11:36.865Z,98975.30
2019-03-25T23:14:07.950Z,98965.65
2019-03-25T23:16:40.842Z,98966.61
2019-03-25T23:19:12.216Z,98976.31
2019-03-25T23:21:43.375Z,98981.37
2019-03-25T23:24:14.665Z,98978.74
2019-03-25T23:26:45.839Z,98974.92
2019-03-25T23:29:16.948Z,98987.73
2019-03-25T23:31:50.188Z,98985.64
2019-03-25T23:34:22.724Z,98982.44
2019-03-25T23:36:54.175Z,98983.64
2019-03-25T23:39:25.748Z,98990.33
2019-03-25T23:41:56.989Z,98992.19
2019-03-25T23:44:27.847Z,98992.14
2019-03-25T23:46:59.259Z,99001.77
2019-03-25T23:49:30.366Z,99007.02
2019-03-25T23:52:01.710Z,99004.58
2019-03-25T23:54:32.588Z,99007.83
2019-03-25T23:57:03.974Z,99014.77
2019-03-25T23:59:34.967Z,99011.84
